createdAt,value
2022-08-21T00:02:14.125Z,24.3
2022-08-21T00:07:44.243Z,24.3
2022-08-21T00:13:22.225Z,24.3
2022-08-21T00:18:53.182Z,24.3
2022-08-21T00:24:15.434Z,24.3
2022-08-21T00:29:56.094Z,24.3
2022-08-21T00:35:43.274Z,24.3
2022-08-21T00:41:54.775Z,24.3
2022-08-21T00:47:24.048Z,24.3
2022-08-21T00:53:07.555Z,24.3
2022-08-21T00:59:01.133Z,24.3
2022-08-21T01:04:40.188Z,24.2
2022-08-21T01:10:20.568Z,24.3
2022-08-21T01:15:45.191Z,24.3
2022-08-21T01:21:28.086Z,24.3
2022-08-21T01:27:08.422Z,24.3
2022-08-21T01:32:49.630Z,24.3
2022-08-21T01:38:27.104Z,24.3
2022-08-21T01:44:13.631Z,24.2
2022-08-21T01:49:50.311Z,24.2
2022-08-21T01:54:58.861Z,24.2
2022-08-21T02:00:29.445Z,24.2
2022-08-21T02:06:23.726Z,24.2
2022-08-21T02:11:46.894Z,24.2
2022-08-21T02:17:55.384Z,24.2
2022-08-21T02:23:44.208Z,24.3
2022-08-21T02:29:09.037Z,24.3
2022-08-21T02:34:46.983Z,24.3
2022-08-21T02:40:18.635Z,24.3
2022-08-21T02:45:57.702Z,24.3
2022-08-21T02:51:34.707Z,24.3
2022-08-21T02:57:11.276Z,24.3
2022-08-21T03:02:31.626Z,24.3
2022-08-21T03:07:53.359Z,24.3
2022-08-21T03:13:38.727Z,24.3
2022-08-21T03:19:27.895Z,24.3
2022-08-21T03:25:17.675Z,24.3
2022-08-21T03:30:54.973Z,24.1
2022-08-21T03:36:18.833Z,23.9
2022-08-21T03:41:55.976Z,23.9
2022-08-21T03:47:32.306Z,23.8
2022-08-21T03:52:53.647Z,23.7
2022-08-21T03:58:16.403Z,23.5
2022-08-21T04:03:37.815Z,23.4
2022-08-21T04:09:22.553Z,23.3
2022-08-21T04:15:06.112Z,23.4
2022-08-21T04:20:45.252Z,23.3
2022-08-21T04:26:42.763Z,23.3
2022-08-21T04:32:25.345Z,23.3
2022-08-21T04:38:03.813Z,23.3
2022-08-21T04:43:56.555Z,23.2
2022-08-21T04:49:53.942Z,23.1
2022-08-21T04:55:32.828Z,22.9
2022-08-21T05:01:28.767Z,22.9
2022-08-21T05:06:36.289Z,22.9
2022-08-21T05:12:02.847Z,23.1
2022-08-21T05:17:44.310Z,23.1
2022-08-21T05:23:30.862Z,23.1
2022-08-21T05:29:21.692Z,22.8
2022-08-21T05:35:06.340Z,22.8
2022-08-21T05:41:27.947Z,22.9
2022-08-21T05:47:38.695Z,23.1
2022-08-21T05:53:25.000Z,23.4
2022-08-21T05:59:08.626Z,23.6
2022-08-21T06:04:52.689Z,23.6
2022-08-21T06:10:41.714Z,23.6
2022-08-21T06:16:21.920Z,23.7
2022-08-21T06:22:04.579Z,23.7
2022-08-21T06:27:46.714Z,23.8
2022-08-21T06:33:32.015Z,23.8
2022-08-21T06:39:12.332Z,23.8
2022-08-21T06:45:34.044Z,23.8
2022-08-21T06:51:01.332Z,23.9
2022-08-21T06:56:45.503Z,23.9
2022-08-21T07:02:24.845Z,23.9
2022-08-21T07:08:03.114Z,23.9
2022-08-21T07:13:51.409Z,23.9
2022-08-21T07:19:28.676Z,23.9
2022-08-21T07:25:07.043Z,24
2022-08-21T07:30:48.951Z,24
2022-08-21T07:36:27.890Z,24
2022-08-21T07:42:14.969Z,24
2022-08-21T07:48:16.400Z,23.9
2022-08-21T07:53:54.945Z,24
2022-08-21T07:59:40.146Z,24
2022-08-21T08:05:25.284Z,24
2022-08-21T08:11:01.439Z,24
2022-08-21T08:16:44.556Z,24.1
2022-08-21T08:22:25.105Z,24.1
2022-08-21T08:28:34.929Z,24.1
2022-08-21T08:34:13.125Z,24.1
2022-08-21T08:40:21.032Z,24.1
2022-08-21T08:46:33.677Z,24.1
2022-08-21T08:52:12.650Z,24.1
2022-08-21T08:57:40.067Z,24.1
2022-08-21T09:03:22.393Z,24.1
2022-08-21T09:08:59.990Z,24.1
2022-08-21T09:14:20.946Z,24.1
2022-08-21T09:20:03.816Z,24.2
2022-08-21T09:25:43.179Z,24.2
2022-08-21T09:31:19.612Z,24.2
2022-08-21T09:37:08.262Z,24.2
2022-08-21T09:42:35.813Z,24.2
2022-08-21T09:48:16.992Z,24.2
2022-08-21T09:54:01.879Z,24.3
2022-08-21T09:59:53.316Z,24.3
2022-08-21T10:05:31.600Z,24.3
2022-08-21T10:11:17.152Z,24.3
2022-08-21T10:16:58.126Z,24.3
2022-08-21T10:22:39.046Z,24.3
2022-08-21T10:29:04.045Z,24.3
2022-08-21T10:34:55.398Z,24.3
2022-08-21T10:41:22.246Z,24.3
2022-08-21T10:46:49.264Z,24.3
2022-08-21T10:52:35.802Z,24.4
2022-08-21T10:58:23.074Z,24.4
2022-08-21T11:03:44.676Z,24.4
2022-08-21T11:09:38.838Z,24.4
2022-08-21T11:16:03.604Z,24.4
2022-08-21T11:21:27.871Z,24.4
2022-08-21T11:27:16.355Z,24.4
2022-08-21T11:32:42.224Z,24.4
2022-08-21T11:38:27.117Z,24.5
2022-08-21T11:44:05.692Z,24.5
2022-08-21T11:49:48.496Z,24.4
2022-08-21T11:55:25.780Z,24.5
2022-08-21T12:01:04.197Z,24.5
2022-08-21T12:06:58.185Z,24.5
2022-08-21T12:12:40.197Z,24.5
2022-08-21T12:18:27.625Z,24.5
2022-08-21T12:24:19.661Z,24.6
2022-08-21T12:29:58.676Z,24.5
2022-08-21T12:35:42.702Z,24.6
2022-08-21T12:41:24.613Z,24.6
2022-08-21T12:46:57.153Z,24.6
2022-08-21T12:52:29.960Z,24.6
2022-08-21T12:58:08.384Z,24.6
2022-08-21T13:03:45.351Z,24.6
2022-08-21T13:09:36.930Z,24.6
2022-08-21T13:15:54.333Z,24.6
2022-08-21T13:21:43.227Z,24.6
2022-08-21T13:28:05.540Z,24.6
2022-08-21T13:33:55.157Z,24.6
2022-08-21T13:39:34.164Z,24.6
2022-08-21T13:45:17.730Z,24.6
2022-08-21T13:50:40.792Z,24.6
2022-08-21T13:56:18.618Z,24.6
2022-08-21T14:01:57.582Z,24.6
2022-08-21T14:07:40.270Z,24.6
2022-08-21T14:13:30.746Z,24.6
2022-08-21T14:19:22.528Z,24.6
2022-08-21T14:25:00.701Z,24.6
2022-08-21T14:30:43.744Z,24.6
2022-08-21T14:36:51.252Z,24.6
2022-08-21T14:42:15.506Z,24.6
2022-08-21T14:48:19.531Z,24.6
2022-08-21T14:54:06.642Z,24.6
2022-08-21T14:59:51.901Z,24.6
2022-08-21T15:05:49.144Z,24.6
2022-08-21T15:11:59.500Z,24.6
2022-08-21T15:17:36.460Z,24.6
2022-08-21T15:23:30.255Z,24.6
2022-08-21T15:29:08.839Z,24.6
2022-08-21T15:34:56.928Z,24.6
2022-08-21T15:40:47.933Z,24.6
2022-08-21T15:46:32.994Z,24.6
2022-08-21T15:52:17.486Z,24.6
2022-08-21T15:57:59.995Z,24.6
2022-08-21T16:03:41.105Z,24.6
2022-08-21T16:09:40.029Z,24.6
2022-08-21T16:15:20.782Z,24.6
2022-08-21T16:20:42.022Z,24.6
2022-08-21T16:26:43.616Z,24.6
2022-08-21T16:32:30.804Z,24.6
2022-08-21T16:38:14.861Z,24.6
2022-08-21T16:43:53.699Z,24.6
2022-08-21T16:49:39.949Z,24.6
2022-08-21T16:55:21.209Z,24.6
2022-08-21T17:01:02.290Z,24.6
2022-08-21T17:06:46.740Z,24.6
2022-08-21T17:12:44.754Z,24.6
2022-08-21T17:18:25.250Z,24.7
2022-08-21T17:24:04.455Z,24.6
2022-08-21T17:29:45.243Z,24.6
2022-08-21T17:35:26.504Z,24.6
2022-08-21T17:41:10.976Z,24.6
2022-08-21T17:46:48.032Z,24.6
2022-08-21T17:52:35.323Z,24.6
2022-08-21T17:58:13.436Z,24.7
2022-08-21T18:03:59.907Z,24.6
2022-08-21T18:09:45.937Z,24.6
2022-08-21T18:15:13.312Z,24.7
2022-08-21T18:20:56.336Z,24.6
2022-08-21T18:26:46.858Z,24.6
2022-08-21T18:32:30.405Z,24.4
2022-08-21T18:38:18.950Z,24.3
2022-08-21T18:44:38.956Z,24.1
2022-08-21T18:50:28.847Z,24.1
